Tiempo atmosférico en la estación meteorológica de Osa De La Vega, Cuenca (763 m.)



Fecha
DESCASC
Temp. máxima en grados centígrados (hora)
DESCASC
Temp. mínima en grados centígrados (hora)
DESCASC
Temp. media en grados centígrados
DESCASC
Racha de viento máxima en m/sg (hora)
DESCASC
Velocidad máxima media en intervalos de 10 minutos(hora)
DESCASC
Precipitaciones diarias en mm
DESCASC
Precipitaciones de 00:00 a 06:00 en mm
DESCASC
Precipitaciones de 06:00 a 12:00 en mm
DESCASC
Precipitaciones de 12:00 a 18:00 en mm
DESCASC
Precipitaciones de 18:00 a 24:00 en mm
DESCASC
16-01-2020 13.4 (16:10) 0.2 (09:00) 6.8 7.78 (15:00) 4.72 (15:40) 0 0 0 0 0
15-01-2020 11.1 (16:30) -3.3 (08:50) 3.9 6.39 (13:00) 4.72 (12:50) 0 0 0 0 0
14-01-2020 8.4 (17:20) -6.1 (08:00) 1.1 4.72 (12:40) 2.78 (13:00) 0 0 0 0 0
13-01-2020 8.6 (14:50) -6.2 (05:40) 1.2 5.83 (14:50) 3.61 (14:30) 0 0 0 0 0
12-01-2020 9.2 (16:40) -5.3 (-00:0) 1.9 5.28 (15:20) 3.06 (15:20) 0 0 0 0 0
11-01-2020 9.9 (15:50) -1.7 (-00:0) 4.1 6.11 (00:50) 3.61 (00:50) 0 0 0 0 0
10-01-2020 9.9 (16:20) -2.2 (-00:0) 3.8 11.67 (16:10) 6.39 (13:20) 0 0 0 0 0
09-01-2020 9.6 (16:10) 0.2 (00:00) 4.9 6.11 (14:00) 3.61 (14:50) 0 0 0 0 0
08-01-2020 12.9 (16:00) -1.2 (-00:0) 5.8 6.39 (16:50) 3.89 (16:50) 0 0 0 0 0
07-01-2020 14.5 (15:00) -2 (-00:0) 6.3 5.83 (16:40) 3.33 (14:30) 0 0 0 0 0
06-01-2020 11.8 (17:00) -1.4 (-00:0) 5.2 3.33 (23:50) 2.22 (07:20) 0 0 0 0 0
05-01-2020 10.9 (16:00) -1.8 (-00:0) 4.5 3.06 (10:50) 1.94 (16:30) 0 0 0 0 0
04-01-2020 10.4 (16:50) -2.8 (-00:0) 3.8 4.44 (16:50) 2.22 (17:10) 0 0 0 0 0
03-01-2020 6.2 (14:50) -2.9 (-00:0) 1.6 6.11 (13:00) 3.61 (12:40) 0.2 0 0.2 0 0
02-01-2020 9.2 (17:10) -3.2 (-00:0) 3 2.78 (16:00) 1.94 (16:40) 0 0 0 0 0
01-01-2020 7.7 (16:00) -4.1 (-00:0) 1.8 3.89 (15:10) 2.78 (14:50) 0.2 0 0 0.2 0
31-12-2019 9.7 (16:30) -2.1 (-00:0) 3.8 4.72 (12:50) 2.78 (12:50) 0 0 0 0 0
30-12-2019 -- (--) -- (--) -- -- (--) -- (--) -- 0 0 -- 0
29-12-2019 10.7 (15:50) -1 (-00:0) 4.8 5 (12:10) 3.06 (13:10) 0 0 0 0 0
28-12-2019 12.9 (16:00) -0.5 (-00:0) 6.2 3.33 (03:30) 2.22 (03:30) 0 0 0 0 0
27-12-2019 13.4 (16:10) 1.9 (00:00) 7.6 4.17 (12:10) 2.5 (12:20) 0 0 0 0 0
26-12-2019 14.6 (16:40) 2.4 (00:00) 8.5 5.28 (15:10) 2.78 (14:30) 0 0 0 0 0
25-12-2019 15 (16:20) 2.1 (00:00) 8.5 3.33 (04:40) 2.22 (04:40) 0 0 0 0 0
24-12-2019 13.8 (15:30) 1.4 (00:00) 7.6 2.5 (06:40) 1.67 (23:20) 0 0 0 0 0
23-12-2019 11.6 (16:40) 2.5 (00:00) 7.1 7.78 (00:40) 3.33 (00:20) 0 0 0 0 0
22-12-2019 13 (13:50) 7.5 (00:00) 10.3 15.28 (14:00) 8.61 (12:40) 0 0 0 0 0
21-12-2019 14.7 (16:00) 9.8 (00:00) 12.3 16.67 (11:40) 10 (11:20) 15 5 6.4 3.6 0
20-12-2019 13.4 (23:10) 11.5 (00:00) 12.4 18.61 (05:20) 12.22 (03:50) 22.2 2.8 6.6 5.2 7.6

Gráficas

Temp. máximas Temp. mínimas Temp. medias Precipitaciones Rachas de viento máximas Velocidades máximas media en intervalos de 10 minutos

Datos horarios

Fecha y hora oficial Temperatura (ºC) Velocidad del viento (km/h) Dirección del viento Racha (km/h) Dirección de racha Precipitación (mm) Presión (hPa) Tendencia (hPa) Humedad (%)
2020-01-18 23:00:00 8.1 10 Oeste 40 Noroeste 3.4 -- -- 97
2020-01-18 22:00:00 8.5 12 Sudoeste 19 Sudoeste 0 -- -- 99
2020-01-18 21:00:00 8.6 10 Sudoeste 29 Sur 0 -- -- 100
2020-01-18 20:00:00 8.3 22 Sur 30 Sur 0.6 -- -- 100
2020-01-18 19:00:00 8.1 19 Sudoeste 32 Sur 0 -- -- 99
2020-01-18 18:00:00 8.1 24 Sudoeste 36 Sur 0 -- -- 98
2020-01-18 17:00:00 8.4 26 Sur 37 Sur 0 -- -- 95
2020-01-18 16:00:00 8.8 21 Sudoeste 35 Sudoeste 0 -- -- 92
2020-01-18 15:00:00 8.9 19 Sudoeste 28 Sudoeste 0 -- -- 93
2020-01-18 14:00:00 9.4 17 Sudoeste 24 Sudoeste 0 -- -- 92
2020-01-18 13:00:00 7.9 12 Sur 18 Sur 0 -- -- 97
2020-01-18 12:00:00 6.9 10 Sur 15 Sur 0.2 -- -- 98
2020-01-18 11:00:00 5.4 10 Sur 13 Sur 0 -- -- 99
2020-01-18 10:00:00 4.1 0 Calma 10 Sur 0.2 -- -- 98
2020-01-18 09:00:00 3.8 5 Sur 10 Sur 1.2 -- -- 97
2020-01-18 08:00:00 3.7 0 Calma 5 Nordeste 0.6 -- -- 95
2020-01-18 07:00:00 3.5 2 Noroeste 10 Norte 0 -- -- 95
2020-01-18 06:00:00 2.7 3 Noroeste 7 Norte 0 -- -- 94
2020-01-18 05:00:00 2.5 2 Nordeste 6 Nordeste 0 -- -- 94
2020-01-18 04:00:00 2.4 0 Calma 4 Oeste 0 -- -- 93
2020-01-18 03:00:00 2.4 0 Calma 3 Este 0 -- -- 92
2020-01-18 02:00:00 2.4 0 Calma 4 Sudoeste 0 -- -- 92
2020-01-18 01:00:00 2.7 0 Calma 4 Sur 0 -- -- 90
2020-01-18 00:00:00 2.6 0 Calma 6 Oeste 0 -- -- 89
2020-01-17 23:00:00 3 4 Noroeste 7 Noroeste 0 -- -- 89
2020-01-17 22:00:00 3 3 Noroeste 9 Norte 0 -- -- 86
2020-01-17 21:00:00 4 5 Norte 7 Noroeste 0 -- -- 83
2020-01-17 20:00:00 5 4 Norte 7 Norte 0 -- -- 80
2020-01-17 19:00:00 7.5 0 Calma 6 Noroeste 0 -- -- 73
2020-01-17 18:00:00 9.7 3 Oeste 18 Noroeste 0 -- -- 70
2020-01-17 17:00:00 10.3 4 Oeste 20 Noroeste 0 -- -- 69
2020-01-17 16:00:00 11 8 Oeste 26 Oeste 0 -- -- 64
2020-01-17 15:00:00 11.1 10 Noroeste 25 Noroeste 0 -- -- 64
2020-01-17 14:00:00 11 11 Oeste 26 Oeste 0 -- -- 65
2020-01-17 13:00:00 10.7 10 Oeste 27 Noroeste 0 -- -- 68
2020-01-17 12:00:00 9.2 9 Oeste 25 Oeste 0 -- -- 78
2020-01-17 11:00:00 8 8 Sudoeste 21 Oeste 0 -- -- 85
2020-01-17 10:00:00 3.3 0 Calma 4 Oeste 0 -- -- 87
2020-01-17 09:00:00 2.6 0 Calma 3 Nordeste 0 -- -- 87
2020-01-17 08:00:00 2.4 0 Calma 5 Nordeste 0 -- -- 80
2020-01-17 07:00:00 3.4 4 Sur 12 Sudoeste 0 -- -- 77
2020-01-17 06:00:00 5.2 3 Sudoeste 10 Sur 0 -- -- 79
2020-01-17 05:00:00 4.9 4 Sudoeste 14 Sur 0 -- -- 74
2020-01-17 04:00:00 3.5 2 Sudoeste 13 Sudoeste 0 -- -- 80
2020-01-17 03:00:00 3 4 Sudeste 9 Sur 0 -- -- 81
2020-01-17 02:00:00 3 2 Nordeste 4 Nordeste 0 -- -- 82
2020-01-17 01:00:00 2.1 2 Sudeste 9 Sur 0 -- -- 79
2020-01-17 00:00:00 2.4 4 Sur 10 Sudeste 0 -- -- 79
2020-01-16 23:00:00 3.5 0 Calma 8 Sudeste 0 -- -- 77
2020-01-16 22:00:00 3.8 4 Sur 15 Sur 0 -- -- 75
2020-01-16 21:00:00 5 0 Calma 4 Sudeste 0 -- -- 68
2020-01-16 20:00:00 6.5 0 Calma 9 Sudoeste 0 -- -- 63
2020-01-16 19:00:00 9.1 7 Sudoeste 12 Sudoeste 0 -- -- 55
2020-01-16 18:00:00 11.1 9 Sudoeste 24 Sudoeste 0 -- -- 49
2020-01-16 17:00:00 13.1 15 Sudoeste 24 Sudoeste 0 -- -- 44
2020-01-16 16:00:00 13.3 15 Sudoeste 25 Sur 0 -- -- 49
2020-01-16 15:00:00 12.9 15 Sudoeste 28 Sudoeste 0 -- -- 51
2020-01-16 14:00:00 11.6 12 Sur 19 Sur 0 -- -- 66
2020-01-16 13:00:00 9.3 10 Sur 15 Sur 0 -- -- 80
2020-01-16 12:00:00 6.1 4 Sur 10 Sur 0 -- -- 88
2020-01-16 11:00:00 3.5 3 Sur 6 Sur 0 -- -- 95
2020-01-16 10:00:00 1.3 0 Calma 5 Noroeste 0 -- -- 95
2020-01-16 09:00:00 0.2 4 Norte 8 Noroeste 0 -- -- 93
2020-01-16 08:00:00 0.8 4 Norte 6 Noroeste 0 -- -- 93
2020-01-16 07:00:00 1.3 0 Calma 3 Noroeste 0 -- -- 91
2020-01-16 06:00:00 2.3 0 Calma 3 Noroeste 0 -- -- 89
2020-01-16 05:00:00 3.2 2 Este 4 Sudeste 0 -- -- 90
2020-01-16 04:00:00 3.9 2 Nordeste 4 Norte 0 -- -- 90
2020-01-16 03:00:00 4.3 0 Calma 5 Noroeste 0 -- -- 88
2020-01-16 02:00:00 5.6 0 Calma 7 Sudeste 0 -- -- 85
2020-01-16 01:00:00 6.5 0 Calma 5 Sudeste 0 -- -- 85
2020-01-16 00:00:00 6.9 0 Calma 4 Norte 0 -- -- 84
2020-01-15 23:00:00 7.1 0 Calma 4 Noroeste 0 -- -- 83
2020-01-15 22:00:00 7.4 0 Calma 5 Este 0 -- -- 82
2020-01-15 21:00:00 7.5 0 Calma 3 Sudeste 0 -- -- 78
2020-01-15 20:00:00 8 2 Este 3 Este 0 -- -- 77
2020-01-15 19:00:00 8.8 0 Calma 5 Sur 0 -- -- 73
2020-01-15 18:00:00 9.7 5 Sur 13 Sur 0 -- -- 71
2020-01-15 17:00:00 10.8 9 Sudoeste 18 Sudoeste 0 -- -- 67
2020-01-15 16:00:00 10.8 7 Sudoeste 18 Sur 0 -- -- 67
2020-01-15 15:00:00 10.3 9 Sudoeste 18 Sudoeste 0 -- -- 67
2020-01-15 14:00:00 9.4 11 Sudoeste 18 Sur 0 -- -- 67
2020-01-15 13:00:00 9.2 14 Sudoeste 23 Sur 0 -- -- 72
2020-01-15 12:00:00 4.1 4 Sur 8 Sur 0 -- -- 96
2020-01-15 11:00:00 0.4 0 Calma 4 Noroeste 0 -- -- 98
2020-01-15 10:00:00 -2.2 2 Noroeste 5 Noroeste 0 -- -- 96
2020-01-15 09:00:00 -3.2 3 Noroeste 5 Norte 0 -- -- 93
2020-01-15 08:00:00 -2.9 3 Norte 6 Norte 0 -- -- 93
2020-01-15 07:00:00 -2.7 0 Calma 3 Noroeste 0 -- -- 91
2020-01-15 06:00:00 -2 2 Noroeste 5 Norte 0 -- -- 91
2020-01-15 05:00:00 -1.1 0 Calma 2 Noroeste 0 -- -- 91
2020-01-15 04:00:00 -1.4 0 Calma 4 Norte 0 -- -- 92
2020-01-15 03:00:00 -2.3 3 Noroeste 6 Noroeste 0 -- -- 91
2020-01-15 02:00:00 -2.3 2 Noroeste 5 Noroeste 0 -- -- 91
2020-01-15 01:00:00 -2.4 0 Calma 3 Noroeste 0 -- -- 86
2020-01-15 00:00:00 -1.7 2 Norte 3 Noroeste 0 -- -- 86
2020-01-14 23:00:00 -1.2 0 Calma 3 Noroeste 0 -- -- 86
2020-01-14 22:00:00 -0.6 0 Calma 7 Norte 0 -- -- 84
2020-01-14 21:00:00 0.2 3 Noroeste 5 Noroeste 0 -- -- 80
2020-01-14 20:00:00 2.2 2 Este 4 Este 0 -- -- 78
2020-01-14 19:00:00 4.3 0 Calma 4 Oeste 0 -- -- 73
2020-01-14 18:00:00 7.1 2 Oeste 9 Oeste 0 -- -- 67
2020-01-14 17:00:00 8.2 4 Oeste 14 Oeste 0 -- -- 64
2020-01-14 16:00:00 8.2 7 Oeste 15 Oeste 0 -- -- 66
2020-01-14 15:00:00 7.8 5 Oeste 15 Oeste 0 -- -- 67
2020-01-14 14:00:00 7.4 6 Sudoeste 15 Sudoeste 0 -- -- 70
2020-01-14 13:00:00 5.5 10 Sur 17 Sur 0 -- -- 82
2020-01-14 12:00:00 1.7 4 Sudeste 8 Sur 0 -- -- 94
2020-01-14 11:00:00 -1 0 Calma 3 Noroeste 0 -- -- 96
2020-01-14 10:00:00 -4 2 Norte 5 Noroeste 0 -- -- 94
2020-01-14 09:00:00 -5.7 0 Calma 4 Norte 0 -- -- 91
2020-01-14 08:00:00 -6.1 3 Noroeste 5 Noroeste 0 -- -- 91
2020-01-14 07:00:00 -5.8 2 Norte 3 Norte 0 -- -- 90
2020-01-14 06:00:00 -5.7 0 Calma 2 Noroeste 0 -- -- 90
2020-01-14 05:00:00 -5.3 2 Norte 4 Noroeste 0 -- -- 90
2020-01-14 04:00:00 -4.7 2 Noroeste 5 Noroeste 0 -- -- 88
2020-01-14 03:00:00 -4.3 2 Norte 6 Norte 0 -- -- 90
2020-01-14 02:00:00 -3.8 4 Norte 6 Norte 0 -- -- 87
2020-01-14 01:00:00 -3.1 2 Norte 4 Norte 0 -- -- 85
2020-01-14 00:00:00 -2.5 2 Noroeste 8 Norte 0 -- -- 84
2020-01-13 23:00:00 -1.9 2 Noroeste 8 Noroeste 0 -- -- 82
2020-01-13 22:00:00 -0.9 0 Calma 7 Norte 0 -- -- 80
2020-01-13 21:00:00 0 3 Noroeste 7 Norte 0 -- -- 76
2020-01-13 20:00:00 1.9 0 Calma 6 Norte 0 -- -- 71
2020-01-13 19:00:00 4.4 3 Noroeste 5 Noroeste 0 -- -- 68
2020-01-13 18:00:00 7.2 0 Calma 10 Noroeste 0 -- -- 61
2020-01-13 17:00:00 8.1 4 Noroeste 17 Noroeste 0 -- -- 57
2020-01-13 16:00:00 8.3 6 Noroeste 19 Noroeste 0 -- -- 60
2020-01-13 15:00:00 8.6 6 Oeste 21 Sur 0 -- -- 58
2020-01-13 14:00:00 7.3 11 Sudoeste 17 Sudoeste 0 -- -- 63
2020-01-13 13:00:00 4.6 5 Sudeste 10 Sur 0 -- -- 77
2020-01-13 12:00:00 1.9 2 Sudeste 5 Sudeste 0 -- -- 85
2020-01-13 11:00:00 -1 0 Calma 3 Norte 0 -- -- 91
2020-01-13 10:00:00 -4.4 0 Calma 5 Norte 0 -- -- 91
2020-01-13 09:00:00 -5.7 4 Norte 6 Norte 0 -- -- 88
2020-01-13 08:00:00 -5.5 0 Calma 4 Norte 0 -- -- 88
2020-01-13 07:00:00 -5.7 0 Calma 5 Norte 0 -- -- 88
2020-01-13 06:00:00 -5.9 3 Norte 6 Noroeste 0 -- -- 87
2020-01-13 05:00:00 -5.9 3 Norte 5 Norte 0 -- -- 86
2020-01-13 04:00:00 -5.4 0 Calma 5 Noroeste 0 -- -- 85
2020-01-13 03:00:00 -4.8 3 Norte 9 Norte 0 -- -- 86
2020-01-13 02:00:00 -4.8 4 Norte 8 Noroeste 0 -- -- 85
2020-01-13 01:00:00 -4.2 4 Noroeste 8 Norte 0 -- -- 83
2020-01-13 00:00:00 -3.8 0 Calma 6 Sudeste 0 -- -- 83
2020-01-12 23:00:00 -2.7 0 Calma 8 Noroeste 0 -- -- 80
2020-01-12 22:00:00 -2 3 Norte 8 Noroeste 0 -- -- 79
2020-01-12 21:00:00 -0.4 0 Calma 6 Noroeste 0 -- -- 74
2020-01-12 20:00:00 1.8 0 Calma 9 Sudeste 0 -- -- 70
2020-01-12 19:00:00 4.7 0 Calma 10 Norte 0 -- -- 62
2020-01-12 18:00:00 8 0 Calma 11 Noroeste 0 -- -- 56
2020-01-12 17:00:00 9.1 3 Noroeste 14 Oeste 0 -- -- 53
2020-01-12 16:00:00 9 6 Noroeste 19 Noroeste 0 -- -- 53
2020-01-12 15:00:00 8.6 9 Noroeste 19 Noroeste 0 -- -- 51
2020-01-12 14:00:00 8 8 Noroeste 19 Noroeste 0 -- -- 53
2020-01-12 13:00:00 6.8 8 Noroeste 15 Noroeste 0 -- -- 65
2020-01-12 12:00:00 3.7 0 Calma 5 Norte 0 -- -- 84
2020-01-12 11:00:00 0 0 Calma 5 Norte 0 -- -- 94
2020-01-12 10:00:00 -3.5 2 Norte 5 Noroeste 0 -- -- 94
2020-01-12 09:00:00 -5.2 2 Noroeste 5 Norte 0 -- -- 90
2020-01-12 08:00:00 -5.3 3 Noroeste 5 Noroeste 0 -- -- 89
2020-01-12 07:00:00 -4.7 2 Norte 4 Norte 0 -- -- 89
2020-01-12 06:00:00 -4.1 0 Calma 2 Noroeste 0 -- -- 87
2020-01-12 05:00:00 -3.2 0 Calma 5 Norte 0 -- -- 87
2020-01-12 04:00:00 -2.6 4 Norte 7 Noroeste 0 -- -- 88
2020-01-12 03:00:00 -2.5 0 Calma 5 Norte 0 -- -- 86
2020-01-12 02:00:00 -2.3 0 Calma 7 Norte 0 -- -- 86
2020-01-12 01:00:00 -2.1 3 Noroeste 4 Norte 0 -- -- 84
2020-01-12 00:00:00 -1.4 3 Noroeste 8 Norte 0 -- -- 80
2020-01-11 23:00:00 -0.5 5 Norte 8 Noroeste 0 -- -- 80
2020-01-11 22:00:00 0.7 4 Norte 8 Norte 0 -- -- 77
2020-01-11 21:00:00 1.4 6 Norte 10 Noroeste 0 -- -- 73
2020-01-11 20:00:00 3.1 6 Noroeste 9 Norte 0 -- -- 68
2020-01-11 19:00:00 5.6 5 Norte 10 Noroeste 0 -- -- 63
2020-01-11 18:00:00 8.3 6 Noroeste 13 Noroeste 0 -- -- 57
2020-01-11 17:00:00 9.8 8 Noroeste 15 Noroeste 0 -- -- 52
2020-01-11 16:00:00 9.9 5 Oeste 15 Noroeste 0 -- -- 53
2020-01-11 15:00:00 9.6 5 Oeste 16 Noroeste 0 -- -- 55
2020-01-11 14:00:00 8.7 5 Noroeste 12 Norte 0 -- -- 57
2020-01-11 13:00:00 7.3 5 Norte 12 Norte 0 -- -- 62
2020-01-11 12:00:00 5.3 0 Calma 6 Noroeste 0 -- -- 73
2020-01-11 11:00:00 3.3 4 Norte 10 Noroeste 0 -- -- 83
2020-01-11 10:00:00 0 4 Noroeste 8 Noroeste 0 -- -- 92
2020-01-11 09:00:00 -1.5 4 Noroeste 10 Noroeste 0 -- -- 90
2020-01-11 08:00:00 -1.2 6 Norte 10 Noroeste 0 -- -- 90
2020-01-11 07:00:00 -0.9 5 Norte 10 Noroeste 0 -- -- 88
2020-01-11 06:00:00 -0.5 4 Noroeste 12 Noroeste 0 -- -- 87
2020-01-11 05:00:00 -0.3 8 Noroeste 12 Noroeste 0 -- -- 87
2020-01-11 04:00:00 0.3 7 Noroeste 12 Noroeste 0 -- -- 84
2020-01-11 03:00:00 1.3 6 Noroeste 10 Oeste 0 -- -- 83
2020-01-11 02:00:00 1.9 5 Norte 15 Norte 0 -- -- 80
2020-01-11 01:00:00 3 12 Norte 22 Norte 0 -- -- 77
2020-01-11 00:00:00 2.6 7 Norte 16 Norte 0 -- -- 77
2020-01-10 23:00:00 3.1 9 Norte 18 Norte 0 -- -- 75
2020-01-10 22:00:00 3.1 6 Noroeste 12 Norte 0 -- -- 73
2020-01-10 21:00:00 4.3 8 Norte 13 Noroeste 0 -- -- 68
2020-01-10 20:00:00 5.3 5 Norte 17 Norte 0 -- -- 64
2020-01-10 19:00:00 6.7 5 Norte 21 Norte 0 -- -- 58
2020-01-10 18:00:00 8.5 12 Norte 32 Norte 0 -- -- 54
2020-01-10 17:00:00 9.6 18 Norte 42 Nordeste 0 -- -- 48
2020-01-10 16:00:00 9.7 19 Norte 31 Norte 0 -- -- 47
2020-01-10 15:00:00 9.3 17 Norte 35 Norte 0 -- -- 51
2020-01-10 14:00:00 8.8 19 Norte 40 Norte 0 -- -- 55
2020-01-10 13:00:00 7.9 22 Norte 36 Norte 0 -- -- 59
2020-01-10 12:00:00 6.7 22 Norte 38 Norte 0 -- -- 67
2020-01-10 11:00:00 4 6 Norte 18 Norte 0 -- -- 88
2020-01-10 10:00:00 1.7 7 Norte 12 Norte 0 -- -- 97
2020-01-10 09:00:00 0.5 0 Calma 11 Noroeste 0 -- -- 97
2020-01-10 08:00:00 0.1 5 Norte 9 Norte 0 -- -- 98
2020-01-10 07:00:00 -0.5 6 Norte 10 Norte 0 -- -- 98
2020-01-10 06:00:00 -2.2 0 Calma 3 Norte 0 -- -- 95
2020-01-10 05:00:00 -1.4 0 Calma 5 Noroeste 0 -- -- 95
2020-01-10 04:00:00 -1 0 Calma 2 Noroeste 0 -- -- 94
2020-01-10 03:00:00 -0.5 2 Sur 8 Norte 0 -- -- 94
2020-01-10 02:00:00 -0.3 2 Norte 7 Norte 0 -- -- 95
2020-01-10 01:00:00 -0.2 3 Noroeste 7 Noroeste 0 -- -- 90
2020-01-10 00:00:00 0.6 2 Noroeste 4 Noroeste 0 -- -- 91
2020-01-09 23:00:00 1.6 0 Calma 3 Noroeste 0 -- -- 89
2020-01-09 22:00:00 2.4 2 Noroeste 8 Noroeste 0 -- -- 88
2020-01-09 21:00:00 2.7 5 Norte 9 Noroeste 0 -- -- 86
2020-01-09 20:00:00 4.5 0 Calma 4 Sudeste 0 -- -- 82
2020-01-09 19:00:00 6.2 0 Calma 3 Sur 0 -- -- 77
2020-01-09 18:00:00 8.6 0 Calma 12 Sur 0 -- -- 74
2020-01-09 17:00:00 9.5 7 Sur 13 Sudoeste 0 -- -- 71
2020-01-09 16:00:00 9.5 10 Sur 16 Sur 0 -- -- 71
2020-01-09 15:00:00 9.1 12 Sur 18 Sur 0 -- -- 75
2020-01-09 14:00:00 7.9 13 Sur 22 Sur 0 -- -- 81
2020-01-09 13:00:00 7.6 12 Sur 20 Sur 0 -- -- 83
2020-01-09 12:00:00 5.9 12 Sur 16 Sur 0 -- -- 89
2020-01-09 11:00:00 3.9 8 Sur 13 Sudeste 0 -- -- 97
2020-01-09 10:00:00 1.1 0 Calma 4 Noroeste 0 -- -- 94
2020-01-09 09:00:00 0.2 3 Norte 5 Noroeste 0 -- -- 93
2020-01-09 08:00:00 0.6 0 Calma 5 Noroeste 0 -- -- 90
2020-01-09 07:00:00 1.4 0 Calma 6 Este 0 -- -- 90
2020-01-09 06:00:00 2.2 2 Sudeste 6 Sudeste 0 -- -- 90
2020-01-09 05:00:00 2.4 0 Calma 8 Este 0 -- -- 87
2020-01-09 04:00:00 2.9 3 Este 8 Este 0 -- -- 88
2020-01-09 03:00:00 2.8 0 Calma 9 Sudeste 0 -- -- 84
2020-01-09 02:00:00 2.9 0 Calma 6 Sudeste 0 -- -- 83
2020-01-09 01:00:00 3.7 0 Calma 7 Sudeste 0 -- -- 81
2020-01-09 00:00:00 4.6 3 Sudeste 10 Este 0 -- -- 79
2020-01-08 23:00:00 5.7 5 Este 15 Este 0 -- -- 78
2020-01-08 22:00:00 6.2 10 Este 22 Este 0 -- -- 84
2020-01-08 21:00:00 6.8 8 Este 23 Nordeste 0 -- -- 85
2020-01-08 20:00:00 7.1 7 Este 13 Este 0 -- -- 80
2020-01-08 19:00:00 8 2 Sudeste 10 Sudeste 0 -- -- 69
2020-01-08 18:00:00 10.6 6 Este 19 Sudeste 0 -- -- 60
2020-01-08 17:00:00 12.6 13 Sudeste 23 Sudeste 0 -- -- 52
2020-01-08 16:00:00 12.9 12 Este 20 Este 0 -- -- 53
2020-01-08 15:00:00 11.8 12 Sur 20 Sur 0 -- -- 55
2020-01-08 14:00:00 10.3 8 Sur 13 Sur 0 -- -- 56
2020-01-08 13:00:00 8 3 Oeste 8 Noroeste 0 -- -- 60
2020-01-08 12:00:00 4.6 5 Sur 12 Sudeste 0 -- -- 75
2020-01-08 11:00:00 1.3 4 Sudeste 6 Sudeste 0 -- -- 85
2020-01-08 10:00:00 -0.1 2 Norte 5 Noroeste 0 -- -- 82
2020-01-08 09:00:00 -1 0 Calma 4 Sur 0 -- -- 79
2020-01-08 08:00:00 0.5 0 Calma 8 Norte 0 -- -- 75
2020-01-08 07:00:00 1.6 3 Noroeste 10 Noroeste 0 -- -- 71
2020-01-08 06:00:00 1.8 8 Noroeste 12 Noroeste 0 -- -- 67
2020-01-08 05:00:00 1.1 5 Noroeste 10 Noroeste 0 -- -- 74
2020-01-08 04:00:00 -0.8 3 Norte 8 Noroeste 0 -- -- 81
2020-01-08 03:00:00 -1.2 0 Calma 3 Noroeste 0 -- -- 80
2020-01-08 02:00:00 0.3 0 Calma 7 Noroeste 0 -- -- 77
2020-01-08 01:00:00 1 0 Calma 12 Noroeste 0 -- -- 77
2020-01-08 00:00:00 2.7 9 Norte 11 Norte 0 -- -- 75
2020-01-07 23:00:00 3.6 5 Noroeste 9 Noroeste 0 -- -- 74
2020-01-07 22:00:00 4.1 6 Norte 10 Norte 0 -- -- 70
2020-01-07 21:00:00 3.7 3 Norte 6 Norte 0 -- -- 62
2020-01-07 20:00:00 5.4 4 Norte 9 Norte 0 -- -- 57
2020-01-07 19:00:00 8.3 5 Norte 11 Noroeste 0 -- -- 48
2020-01-07 18:00:00 11.1 9 Noroeste 15 Noroeste 0 -- -- 43
2020-01-07 17:00:00 14 7 Noroeste 21 Noroeste 0 -- -- 40
2020-01-07 16:00:00 14.4 9 Noroeste 21 Noroeste 0 -- -- 41
2020-01-07 15:00:00 14.5 9 Norte 21 Norte 0 -- -- 34
2020-01-07 14:00:00 13.7 9 Norte 18 Norte 0 -- -- 36
2020-01-07 13:00:00 11.8 7 Noroeste 16 Norte 0 -- -- 49
2020-01-07 12:00:00 8.7 8 Norte 16 Norte 0 -- -- 56
2020-01-07 11:00:00 3.3 7 Norte 13 Norte 0 -- -- 83
2020-01-07 10:00:00 -1.3 3 Norte 7 Sudeste 0 -- -- 90
2020-01-07 09:00:00 -1.6 2 Nordeste 10 Noroeste 0 -- -- 86
2020-01-07 08:00:00 -1.5 6 Noroeste 10 Noroeste 0 -- -- 87
2020-01-07 07:00:00 -1.6 0 Calma 10 Noroeste 0 -- -- 86
2020-01-07 06:00:00 -1.6 2 Norte 6 Norte 0 -- -- 86
2020-01-07 05:00:00 -1.5 3 Norte 6 Norte 0 -- -- 88
2020-01-07 04:00:00 -1.6 0 Calma 3 Norte 0 -- -- 87
2020-01-07 03:00:00 -1.8 2 Norte 8 Noroeste 0 -- -- 86
2020-01-07 02:00:00 -1.2 2 Norte 4 Noroeste 0 -- -- 87
2020-01-07 01:00:00 -0.5 0 Calma 9 Noroeste 0 -- -- 85
2020-01-07 00:00:00 0.6 6 Norte 12 Norte 0 -- -- 83
2020-01-06 23:00:00 1.8 3 Norte 11 Noroeste 0 -- -- 82
2020-01-06 22:00:00 1.1 0 Calma 5 Norte 0 -- -- 79
2020-01-06 21:00:00 1.9 5 Norte 8 Norte 0 -- -- 79
2020-01-06 20:00:00 4.4 0 Calma 4 Noroeste 0 -- -- 74
2020-01-06 19:00:00 7 2 Noroeste 4 Noroeste 0 -- -- 68
2020-01-06 18:00:00 10.2 2 Sur 4 Sudeste 0 -- -- 61
2020-01-06 17:00:00 11.8 4 Noroeste 7 Noroeste 0 -- -- 52
2020-01-06 16:00:00 11 2 Este 6 Sudeste 0 -- -- 52
2020-01-06 15:00:00 9.7 3 Sudeste 9 Sudoeste 0 -- -- 53
2020-01-06 14:00:00 9.8 4 Sudoeste 9 Sudoeste 0 -- -- 47
2020-01-06 13:00:00 8 2 Noroeste 6 Noroeste 0 -- -- 65
2020-01-06 12:00:00 5.3 2 Norte 5 Norte 0 -- -- 80
2020-01-06 11:00:00 2.5 0 Calma 6 Noroeste 0 -- -- 87
2020-01-06 10:00:00 0.5 5 Noroeste 9 Norte 0 -- -- 89